Time;durP1;ratioP1;P1;durP2;ratioP2;P2;SDS_P1;SDS_P2;PMS_P1;PMS_P2;Temp;Humidity;BMP_temperature;BMP_pressure;BME280_temperature;BME280_humidity;BME280_pressure;Samples;Min_cycle;Max_cycle;Signal;HPM_P1;HPM_P2
2022/02/27 00:01:47;;;;;;;18.43;7.50;;;;;;;;;;5035490;28;20032;-72
2022/02/27 00:04:12;;;;;;;20.70;7.20;;;;;;;;;;5031161;28;20240;-71
2022/02/27 00:06:37;;;;;;;19.47;7.47;;;;;;;;;;5034273;28;20036;-72
2022/02/27 00:09:02;;;;;;;14.13;5.53;;;;;;;;;;5038387;28;20036;-72
2022/02/27 00:11:28;;;;;;;14.97;5.97;;;;;;;;;;5039056;28;20055;-71
2022/02/27 00:13:53;;;;;;;12.70;4.50;;;;;;;;;;5027309;28;20047;-71
2022/02/27 00:16:18;;;;;;;22.73;6.87;;;;;;;;;;5031320;28;20541;-72
2022/02/27 00:18:43;;;;;;;12.77;5.13;;;;;;;;;;5039217;28;20067;-72
2022/02/27 00:21:08;;;;;;;10.00;4.57;;;;;;;;;;5038565;28;20037;-72
2022/02/27 00:23:34;;;;;;;17.17;4.93;;;;;;;;;;5036029;28;20033;-72
2022/02/27 00:25:59;;;;;;;11.80;4.27;;;;;;;;;;5031445;28;20028;-72
2022/02/27 00:28:24;;;;;;;10.03;4.40;;;;;;;;;;5025759;28;20206;-72
2022/02/27 00:30:50;;;;;;;16.20;3.90;;;;;;;;;;5036587;28;20476;-72
2022/02/27 00:33:15;;;;;;;10.70;3.90;;;;;;;;;;5031975;28;20078;-72
2022/02/27 00:35:40;;;;;;;10.67;4.20;;;;;;;;;;5037544;28;20072;-72
2022/02/27 00:38:06;;;;;;;13.70;5.10;;;;;;;;;;5032666;28;20033;-72
2022/02/27 00:40:31;;;;;;;8.20;3.47;;;;;;;;;;5026363;28;20116;-72
2022/02/27 00:42:57;;;;;;;12.80;3.30;;;;;;;;;;5037271;28;20525;-72
2022/02/27 00:45:22;;;;;;;18.33;4.40;;;;;;;;;;5037314;28;20286;-71
2022/02/27 00:47:48;;;;;;;11.47;3.70;;;;;;;;;;5028051;28;20108;-71
2022/02/27 00:50:13;;;;;;;14.53;3.00;;;;;;;;;;5035676;28;20436;-71
2022/02/27 00:52:38;;;;;;;8.90;3.17;;;;;;;;;;5025340;28;20029;-71
2022/02/27 00:55:04;;;;;;;10.43;4.67;;;;;;;;;;5032840;28;20442;-71
2022/02/27 00:57:30;;;;;;;11.00;3.80;;;;;;;;;;5032626;28;20087;-71
2022/02/27 00:59:56;;;;;;;6.23;3.00;;;;;;;;;;5035101;28;20035;-71
2022/02/27 01:02:22;;;;;;;8.57;3.03;;;;;;;;;;5037904;28;20129;-71
2022/02/27 01:04:47;;;;;;;11.10;3.63;;;;;;;;;;5030749;28;20542;-71
2022/02/27 01:07:12;;;;;;;9.97;3.80;;;;;;;;;;5021865;28;20113;-71
2022/02/27 01:09:38;;;;;;;11.47;3.90;;;;;;;;;;5033911;28;20039;-71
2022/02/27 01:12:03;;;;;;;7.77;3.20;;;;;;;;;;5028839;28;20033;-72
2022/02/27 01:14:28;;;;;;;6.70;3.30;;;;;;;;;;5028782;28;20021;-72
2022/02/27 01:16:54;;;;;;;10.50;3.93;;;;;;;;;;5023318;28;20261;-72
2022/02/27 01:19:19;;;;;;;14.23;3.93;;;;;;;;;;5034778;28;20084;-72
2022/02/27 01:21:44;;;;;;;8.40;3.30;;;;;;;;;;5036629;28;20104;-72
2022/02/27 01:24:10;;;;;;;8.47;2.73;;;;;;;;;;5039294;28;20065;-72
2022/02/27 01:26:35;;;;;;;7.80;2.83;;;;;;;;;;5042847;28;20037;-72
2022/02/27 01:29:03;;;;;;;8.83;3.30;;;;;;;;;;5033995;28;20079;-72
2022/02/27 01:31:28;;;;;;;8.43;3.23;;;;;;;;;;5042458;28;20336;-72
2022/02/27 01:33:53;;;;;;;8.63;3.47;;;;;;;;;;5041890;28;20258;-72
2022/02/27 01:36:19;;;;;;;7.60;3.53;;;;;;;;;;5042614;28;20049;-72
2022/02/27 01:38:45;;;;;;;10.93;3.77;;;;;;;;;;5036237;28;20036;-72
2022/02/27 01:41:11;;;;;;;17.73;3.83;;;;;;;;;;5042364;28;20040;-72
2022/02/27 01:43:36;;;;;;;8.37;4.17;;;;;;;;;;5041901;28;20165;-72
2022/02/27 01:46:01;;;;;;;9.67;2.80;;;;;;;;;;5041935;28;20425;-72
2022/02/27 01:48:27;;;;;;;12.33;3.10;;;;;;;;;;5036073;28;20131;-72
2022/02/27 01:50:52;;;;;;;7.93;2.90;;;;;;;;;;5032469;28;20519;-72
2022/02/27 01:53:17;;;;;;;8.47;2.83;;;;;;;;;;5030468;28;20060;-72
2022/02/27 01:55:42;;;;;;;8.00;3.03;;;;;;;;;;5039100;28;20157;-72
2022/02/27 01:58:08;;;;;;;7.70;2.70;;;;;;;;;;5029348;28;20438;-72
2022/02/27 02:00:33;;;;;;;9.43;4.00;;;;;;;;;;5032675;28;20025;-72
2022/02/27 02:02:58;;;;;;;9.83;2.70;;;;;;;;;;5044947;28;20194;-72
2022/02/27 02:05:24;;;;;;;9.20;3.10;;;;;;;;;;5028854;22;20058;-68
2022/02/27 02:07:49;;;;;;;6.30;2.37;;;;;;;;;;5010722;28;20034;-68
2022/02/27 02:10:14;;;;;;;7.03;2.73;;;;;;;;;;5019492;28;20017;-68
2022/02/27 02:12:40;;;;;;;7.27;3.03;;;;;;;;;;5014799;28;20057;-68
2022/02/27 02:15:05;;;;;;;6.77;2.17;;;;;;;;;;5021474;28;20022;-68
2022/02/27 02:17:31;;;;;;;18.83;3.80;;;;;;;;;;5021986;28;20654;-68
2022/02/27 02:19:56;;;;;;;6.03;2.57;;;;;;;;;;5020590;28;20060;-68
2022/02/27 02:22:21;;;;;;;10.97;3.10;;;;;;;;;;5021552;28;20025;-68
2022/02/27 02:24:47;;;;;;;9.90;2.87;;;;;;;;;;5021326;28;20026;-68
2022/02/27 02:27:12;;;;;;;9.37;2.67;;;;;;;;;;5019800;28;20017;-68
2022/02/27 02:29:38;;;;;;;6.20;2.50;;;;;;;;;;5023551;28;20165;-68
2022/02/27 02:32:03;;;;;;;8.80;3.00;;;;;;;;;;5021918;28;20481;-68
2022/02/27 02:34:28;;;;;;;5.47;2.30;;;;;;;;;;5023888;28;20021;-68
2022/02/27 02:36:55;;;;;;;7.67;3.20;;;;;;;;;;5021896;28;20017;-68
2022/02/27 02:39:20;;;;;;;6.93;2.80;;;;;;;;;;5016491;28;20221;-68
2022/02/27 02:41:46;;;;;;;7.93;3.10;;;;;;;;;;5021792;28;20029;-68
2022/02/27 02:44:12;;;;;;;7.00;2.70;;;;;;;;;;5021564;28;20051;-68
2022/02/27 02:46:38;;;;;;;7.53;3.13;;;;;;;;;;5021039;28;20075;-68
2022/02/27 02:49:04;;;;;;;5.50;2.70;;;;;;;;;;5021342;28;20025;-68
2022/02/27 02:51:29;;;;;;;7.53;3.00;;;;;;;;;;5018920;28;20037;-68
2022/02/27 02:53:55;;;;;;;13.23;2.87;;;;;;;;;;5021002;28;20032;-68
2022/02/27 02:56:20;;;;;;;9.23;3.17;;;;;;;;;;5020980;28;20075;-68
2022/02/27 02:58:45;;;;;;;9.77;2.70;;;;;;;;;;5026688;28;20022;-68
2022/02/27 03:01:15;;;;;;;9.57;3.00;;;;;;;;;;5020876;28;20036;-68
2022/02/27 03:03:41;;;;;;;10.73;3.20;;;;;;;;;;5020148;28;20029;-68
2022/02/27 03:06:08;;;;;;;6.40;2.67;;;;;;;;;;5009863;28;20018;-68
2022/02/27 03:08:34;;;;;;;5.63;2.57;;;;;;;;;;5008793;28;20026;-68
2022/02/27 03:10:59;;;;;;;5.90;2.63;;;;;;;;;;5020880;28;20311;-68
2022/02/27 03:13:24;;;;;;;10.37;3.50;;;;;;;;;;5020138;28;20032;-68
2022/02/27 03:15:50;;;;;;;9.13;2.50;;;;;;;;;;5013085;28;20242;-68
2022/02/27 03:18:15;;;;;;;15.13;3.73;;;;;;;;;;5020812;28;20030;-68
2022/02/27 03:20:41;;;;;;;22.93;5.20;;;;;;;;;;5022008;28;20035;-69
2022/02/27 03:23:06;;;;;;;14.30;3.47;;;;;;;;;;5020621;28;20320;-67
2022/02/27 03:25:31;;;;;;;9.70;3.20;;;;;;;;;;5020526;28;20041;-67
2022/02/27 03:27:56;;;;;;;9.73;4.00;;;;;;;;;;5006899;28;20042;-67
2022/02/27 03:30:22;;;;;;;10.53;3.50;;;;;;;;;;5020426;28;20009;-67
2022/02/27 03:32:47;;;;;;;10.97;3.60;;;;;;;;;;5006128;28;20030;-68
2022/02/27 03:35:13;;;;;;;12.23;3.80;;;;;;;;;;5020578;28;20266;-68
2022/02/27 03:37:38;;;;;;;7.33;2.80;;;;;;;;;;5003706;28;20284;-68
2022/02/27 03:40:04;;;;;;;7.03;3.13;;;;;;;;;;5013066;28;20575;-68
2022/02/27 03:42:29;;;;;;;10.83;3.00;;;;;;;;;;5020124;28;20473;-68
2022/02/27 03:44:54;;;;;;;9.47;3.70;;;;;;;;;;5019931;28;20033;-68
2022/02/27 03:47:20;;;;;;;9.20;3.73;;;;;;;;;;5019733;28;20026;-68
2022/02/27 03:49:45;;;;;;;7.33;3.47;;;;;;;;;;5020039;28;20124;-68
2022/02/27 03:52:10;;;;;;;7.90;3.13;;;;;;;;;;5016037;28;20117;-68
2022/02/27 03:54:36;;;;;;;11.67;3.07;;;;;;;;;;5025357;28;20032;-68
2022/02/27 03:57:01;;;;;;;12.90;4.53;;;;;;;;;;5007200;28;20338;-68
2022/02/27 03:59:26;;;;;;;11.13;3.63;;;;;;;;;;5014978;28;20448;-69
2022/02/27 04:01:51;;;;;;;13.27;3.37;;;;;;;;;;5019613;28;20044;-70
2022/02/27 04:04:16;;;;;;;9.13;3.40;;;;;;;;;;5017380;28;20060;-70
2022/02/27 04:06:42;;;;;;;8.23;3.73;;;;;;;;;;5004288;28;20029;-70
2022/02/27 04:09:07;;;;;;;12.90;3.80;;;;;;;;;;5012122;28;20041;-68
2022/02/27 04:11:32;;;;;;;12.40;3.50;;;;;;;;;;5004316;28;20497;-68
2022/02/27 04:13:58;;;;;;;7.83;2.97;;;;;;;;;;5010793;28;20021;-68
2022/02/27 04:16:23;;;;;;;9.43;3.67;;;;;;;;;;5019153;28;20061;-70
2022/02/27 04:18:48;;;;;;;11.17;4.10;;;;;;;;;;5020822;28;20086;-70
2022/02/27 04:21:14;;;;;;;13.83;5.13;;;;;;;;;;5017752;28;20041;-68
2022/02/27 04:23:39;;;;;;;13.17;4.00;;;;;;;;;;5007839;28;20025;-68
2022/02/27 04:26:04;;;;;;;10.40;4.30;;;;;;;;;;5019202;28;20030;-69
2022/02/27 04:28:29;;;;;;;13.50;4.23;;;;;;;;;;5011935;28;20033;-68
2022/02/27 04:30:54;;;;;;;13.83;4.13;;;;;;;;;;5021116;28;20061;-68
2022/02/27 04:33:20;;;;;;;8.90;4.40;;;;;;;;;;5018885;28;20091;-68
2022/02/27 04:35:45;;;;;;;9.27;3.57;;;;;;;;;;5019116;28;20393;-68
2022/02/27 04:38:10;;;;;;;6.10;3.07;;;;;;;;;;5012374;28;20466;-68
2022/02/27 04:40:36;;;;;;;9.67;3.40;;;;;;;;;;5019050;28;20453;-68
2022/02/27 04:43:01;;;;;;;10.60;4.20;;;;;;;;;;5018591;28;20037;-68
2022/02/27 04:45:27;;;;;;;8.47;3.50;;;;;;;;;;5018591;28;20061;-68
2022/02/27 04:47:52;;;;;;;8.90;3.43;;;;;;;;;;5004488;28;20018;-68
2022/02/27 04:50:18;;;;;;;8.40;3.40;;;;;;;;;;5012624;28;20036;-68
2022/02/27 04:52:43;;;;;;;11.40;4.03;;;;;;;;;;5003110;28;20034;-68
2022/02/27 04:55:08;;;;;;;10.67;3.80;;;;;;;;;;5018643;28;20470;-68
2022/02/27 04:57:33;;;;;;;11.80;4.17;;;;;;;;;;5015291;28;20437;-68
2022/02/27 05:00:00;;;;;;;19.00;5.03;;;;;;;;;;5018006;28;20258;-68
2022/02/27 05:02:25;;;;;;;8.80;3.90;;;;;;;;;;5008249;28;20295;-68
2022/02/27 05:04:51;;;;;;;10.07;4.47;;;;;;;;;;5010687;28;20616;-68
2022/02/27 05:07:16;;;;;;;8.77;3.80;;;;;;;;;;5018608;28;20029;-68
2022/02/27 05:09:41;;;;;;;14.03;4.30;;;;;;;;;;5017917;28;20045;-68
2022/02/27 05:12:06;;;;;;;10.07;4.03;;;;;;;;;;5018884;28;20029;-68
2022/02/27 05:14:32;;;;;;;7.33;3.70;;;;;;;;;;5011378;28;20564;-68
2022/02/27 05:16:57;;;;;;;9.77;4.10;;;;;;;;;;5018464;28;20363;-68
2022/02/27 05:19:22;;;;;;;9.27;3.60;;;;;;;;;;5014084;28;20033;-68
2022/02/27 05:21:47;;;;;;;10.83;4.67;;;;;;;;;;5018633;28;20318;-68
2022/02/27 05:24:13;;;;;;;12.77;4.20;;;;;;;;;;5018582;28;20025;-68
2022/02/27 05:26:38;;;;;;;10.67;5.00;;;;;;;;;;5015451;28;20033;-68
2022/02/27 05:29:04;;;;;;;7.30;3.67;;;;;;;;;;5018089;28;20033;-68
2022/02/27 05:31:29;;;;;;;10.43;4.00;;;;;;;;;;5022779;28;20413;-68
2022/02/27 05:33:55;;;;;;;8.00;3.93;;;;;;;;;;5016281;28;20397;-68
2022/02/27 05:36:20;;;;;;;12.37;4.73;;;;;;;;;;5018612;28;20228;-68
2022/02/27 05:38:45;;;;;;;8.53;3.70;;;;;;;;;;5016561;28;20119;-68
2022/02/27 05:41:10;;;;;;;12.60;4.17;;;;;;;;;;5010140;28;20080;-68
2022/02/27 05:43:36;;;;;;;19.03;4.40;;;;;;;;;;5018386;28;20029;-68
2022/02/27 05:46:01;;;;;;;13.47;5.13;;;;;;;;;;5018699;28;20193;-68
2022/02/27 05:48:26;;;;;;;10.17;4.10;;;;;;;;;;5018145;28;20065;-68
2022/02/27 05:50:51;;;;;;;10.70;4.13;;;;;;;;;;5015434;28;20037;-68
2022/02/27 05:53:17;;;;;;;8.13;3.90;;;;;;;;;;5018420;28;20025;-68
2022/02/27 05:55:42;;;;;;;7.20;3.70;;;;;;;;;;5018364;28;20521;-68
2022/02/27 05:58:07;;;;;;;9.13;3.87;;;;;;;;;;5018178;28;20278;-68
2022/02/27 06:00:33;;;;;;;12.17;4.67;;;;;;;;;;5019977;28;20108;-69
2022/02/27 06:02:58;;;;;;;10.30;4.40;;;;;;;;;;5017537;28;20114;-69
2022/02/27 06:05:24;;;;;;;11.53;4.37;;;;;;;;;;5021564;28;20256;-69
2022/02/27 06:07:49;;;;;;;13.40;5.87;;;;;;;;;;5021255;28;20025;-69
2022/02/27 06:10:14;;;;;;;21.80;6.97;;;;;;;;;;5017691;28;20025;-69
2022/02/27 06:12:49;;;;;;;13.27;5.17;;;;;;;;;;5021364;28;20021;-69
2022/02/27 06:15:15;;;;;;;9.33;4.70;;;;;;;;;;5021836;28;20577;-69
2022/02/27 06:17:40;;;;;;;15.20;5.73;;;;;;;;;;5019937;28;20279;-69
2022/02/27 06:20:06;;;;;;;10.57;4.43;;;;;;;;;;5014920;28;20047;-69
2022/02/27 06:22:32;;;;;;;15.63;4.73;;;;;;;;;;5026676;28;20757;-69
2022/02/27 06:24:58;;;;;;;7.60;4.17;;;;;;;;;;5021259;28;20093;-69
2022/02/27 06:27:23;;;;;;;9.47;4.43;;;;;;;;;;5021427;28;20249;-69
2022/02/27 06:29:48;;;;;;;10.90;5.23;;;;;;;;;;5020470;28;20034;-69
2022/02/27 06:32:13;;;;;;;11.63;5.00;;;;;;;;;;5016679;28;20107;-69
2022/02/27 06:34:39;;;;;;;15.43;5.17;;;;;;;;;;5016211;28;20037;-69
2022/02/27 06:37:04;;;;;;;9.43;4.87;;;;;;;;;;5001950;28;20025;-69
2022/02/27 06:39:29;;;;;;;11.83;5.00;;;;;;;;;;5017105;28;20044;-69
2022/02/27 06:41:54;;;;;;;11.33;4.50;;;;;;;;;;5020258;28;20029;-69
2022/02/27 06:44:20;;;;;;;8.93;4.43;;;;;;;;;;5021044;28;20017;-69
2022/02/27 06:46:45;;;;;;;14.87;5.43;;;;;;;;;;5021466;28;20040;-69
2022/02/27 06:49:10;;;;;;;8.00;4.20;;;;;;;;;;5020724;28;20057;-69
2022/02/27 06:51:35;;;;;;;10.90;4.53;;;;;;;;;;5018607;28;20025;-69
2022/02/27 06:54:01;;;;;;;16.77;7.27;;;;;;;;;;5017346;28;20550;-69
2022/02/27 06:56:27;;;;;;;9.73;5.03;;;;;;;;;;5015026;28;20010;-69
2022/02/27 06:58:52;;;;;;;15.53;5.70;;;;;;;;;;5021021;28;20570;-69
2022/02/27 07:01:18;;;;;;;10.23;5.37;;;;;;;;;;5020924;28;20021;-69
2022/02/27 07:03:43;;;;;;;9.43;4.93;;;;;;;;;;5019431;28;20057;-69
2022/02/27 07:06:08;;;;;;;13.57;4.33;;;;;;;;;;5007739;28;20128;-69
2022/02/27 07:08:34;;;;;;;10.57;4.60;;;;;;;;;;5014003;28;20449;-68
2022/02/27 07:11:02;;;;;;;11.77;5.83;;;;;;;;;;5020648;28;20367;-68
2022/02/27 07:13:28;;;;;;;9.20;4.67;;;;;;;;;;5020358;28;20025;-68
2022/02/27 07:15:53;;;;;;;10.17;4.23;;;;;;;;;;5019587;28;20246;-69
2022/02/27 07:18:18;;;;;;;12.37;5.10;;;;;;;;;;5015729;28;20042;-69
2022/02/27 07:20:44;;;;;;;12.53;5.70;;;;;;;;;;5020374;28;20030;-69
2022/02/27 07:23:09;;;;;;;8.00;3.97;;;;;;;;;;5020160;28;20033;-69
2022/02/27 07:25:34;;;;;;;7.00;3.00;;;;;;;;;;5020083;28;20033;-69
2022/02/27 07:27:59;;;;;;;11.53;4.37;;;;;;;;;;5019971;28;20359;-69
2022/02/27 07:30:25;;;;;;;10.67;4.70;;;;;;;;;;5019507;28;20281;-69
2022/02/27 07:32:50;;;;;;;10.03;3.70;;;;;;;;;;5020105;28;20507;-69
2022/02/27 07:35:15;;;;;;;11.20;3.60;;;;;;;;;;5019788;28;20036;-69
2022/02/27 07:37:40;;;;;;;10.93;4.63;;;;;;;;;;5016511;28;20402;-69
2022/02/27 07:40:06;;;;;;;10.70;4.03;;;;;;;;;;5020058;28;20064;-69
2022/02/27 07:42:32;;;;;;;9.70;3.60;;;;;;;;;;5024207;28;20477;-69
2022/02/27 07:44:57;;;;;;;6.67;3.10;;;;;;;;;;5019566;28;20105;-69
2022/02/27 07:47:22;;;;;;;13.43;4.63;;;;;;;;;;5020128;28;20076;-69
2022/02/27 07:49:48;;;;;;;6.63;3.70;;;;;;;;;;5027340;28;20026;-69
2022/02/27 07:52:13;;;;;;;9.13;3.93;;;;;;;;;;5019974;28;20270;-69
2022/02/27 07:54:38;;;;;;;12.67;4.17;;;;;;;;;;5021885;28;20324;-69
2022/02/27 07:57:04;;;;;;;7.90;3.60;;;;;;;;;;5019874;28;20253;-69
2022/02/27 07:59:29;;;;;;;11.63;3.97;;;;;;;;;;5015036;28;20034;-69
2022/02/27 08:01:54;;;;;;;10.90;4.40;;;;;;;;;;5018818;28;20416;-69
2022/02/27 08:04:19;;;;;;;11.23;3.70;;;;;;;;;;5019107;28;20057;-70
2022/02/27 08:06:45;;;;;;;8.67;3.33;;;;;;;;;;5011617;28;20033;-70
2022/02/27 08:09:11;;;;;;;8.10;3.27;;;;;;;;;;5014410;28;20129;-70
2022/02/27 08:11:36;;;;;;;10.73;3.30;;;;;;;;;;5015803;28;20087;-71
2022/02/27 08:14:01;;;;;;;11.57;5.30;;;;;;;;;;5016074;28;20025;-71
2022/02/27 08:16:26;;;;;;;18.03;10.17;;;;;;;;;;4998825;28;20120;-71
2022/02/27 08:18:52;;;;;;;7.63;3.60;;;;;;;;;;5014833;28;20383;-71
2022/02/27 08:21:17;;;;;;;6.33;2.50;;;;;;;;;;5012226;28;20082;-71
2022/02/27 08:23:43;;;;;;;12.40;2.83;;;;;;;;;;5014885;28;20248;-71
2022/02/27 08:26:08;;;;;;;8.73;2.40;;;;;;;;;;5014365;28;20033;-70
2022/02/27 08:28:33;;;;;;;7.73;2.40;;;;;;;;;;5015815;28;20044;-70
2022/02/27 08:30:59;;;;;;;5.87;2.30;;;;;;;;;;5012169;28;20029;-70
2022/02/27 08:33:24;;;;;;;6.07;2.17;;;;;;;;;;5016208;28;20029;-70
2022/02/27 08:35:50;;;;;;;6.40;2.40;;;;;;;;;;5011977;28;20057;-70
2022/02/27 08:38:16;;;;;;;9.13;3.47;;;;;;;;;;5015723;28;20087;-70
2022/02/27 08:40:41;;;;;;;6.80;2.47;;;;;;;;;;5015127;28;20068;-70
2022/02/27 08:43:06;;;;;;;5.07;2.40;;;;;;;;;;5009044;28;20116;-70
2022/02/27 08:45:32;;;;;;;5.37;2.50;;;;;;;;;;5011339;28;20394;-70
2022/02/27 08:47:57;;;;;;;6.50;2.83;;;;;;;;;;5012049;28;20115;-70
2022/02/27 08:50:22;;;;;;;8.37;2.40;;;;;;;;;;5014036;28;20033;-70
2022/02/27 08:52:48;;;;;;;5.80;2.60;;;;;;;;;;5016399;28;20458;-70
2022/02/27 08:55:16;;;;;;;7.17;3.00;;;;;;;;;;5015199;28;20033;-70
2022/02/27 08:57:42;;;;;;;6.77;2.40;;;;;;;;;;5016021;28;20503;-70
2022/02/27 09:00:09;;;;;;;5.33;2.33;;;;;;;;;;5016581;28;20057;-70
2022/02/27 09:02:35;;;;;;;7.27;2.63;;;;;;;;;;5009520;28;20083;-70
2022/02/27 09:05:01;;;;;;;9.27;2.97;;;;;;;;;;5017597;28;20053;-69
2022/02/27 09:07:26;;;;;;;7.77;2.53;;;;;;;;;;5011995;28;20037;-69
2022/02/27 09:09:52;;;;;;;8.53;3.33;;;;;;;;;;5011877;28;20045;-69
2022/02/27 09:12:17;;;;;;;8.00;2.57;;;;;;;;;;5010437;28;20121;-69
2022/02/27 09:14:42;;;;;;;11.50;2.77;;;;;;;;;;5015684;28;20029;-69
2022/02/27 09:17:08;;;;;;;6.33;2.33;;;;;;;;;;5011086;28;20029;-69
2022/02/27 09:19:33;;;;;;;8.00;2.47;;;;;;;;;;5014625;28;20103;-70
2022/02/27 09:21:59;;;;;;;7.43;3.30;;;;;;;;;;5013863;28;20253;-70
2022/02/27 09:24:24;;;;;;;7.40;3.67;;;;;;;;;;5014872;28;20253;-70
2022/02/27 09:26:50;;;;;;;7.83;3.33;;;;;;;;;;5004513;28;20021;-70
2022/02/27 09:29:15;;;;;;;7.23;2.90;;;;;;;;;;5014310;28;20335;-69
2022/02/27 09:31:40;;;;;;;6.87;2.80;;;;;;;;;;5015773;28;20549;-69
2022/02/27 09:34:06;;;;;;;6.43;2.63;;;;;;;;;;5015462;28;20204;-69
2022/02/27 09:36:31;;;;;;;7.10;2.70;;;;;;;;;;5010631;28;20348;-69
2022/02/27 09:38:56;;;;;;;8.23;3.57;;;;;;;;;;5018481;28;20107;-69
2022/02/27 09:41:22;;;;;;;6.67;3.37;;;;;;;;;;5015244;28;20064;-69
2022/02/27 09:43:54;;;;;;;7.13;2.70;;;;;;;;;;5017169;28;20036;-69
2022/02/27 09:46:20;;;;;;;5.57;2.30;;;;;;;;;;5019673;28;20036;-69
2022/02/27 09:48:46;;;;;;;16.40;2.47;;;;;;;;;;5021927;28;20466;-69
2022/02/27 09:51:12;;;;;;;8.03;2.60;;;;;;;;;;5020546;28;20629;-69
2022/02/27 09:53:37;;;;;;;7.23;2.10;;;;;;;;;;5017385;28;20036;-69
2022/02/27 09:56:02;;;;;;;10.20;3.83;;;;;;;;;;5019475;28;20025;-69
2022/02/27 09:58:28;;;;;;;6.03;2.57;;;;;;;;;;5019153;28;20374;-69
2022/02/27 10:00:54;;;;;;;6.83;2.67;;;;;;;;;;5019057;28;20456;-69
2022/02/27 10:03:25;;;;;;;6.77;2.30;;;;;;;;;;5004983;28;20734;-69
2022/02/27 10:05:50;;;;;;;7.47;3.20;;;;;;;;;;5019607;28;20353;-69
2022/02/27 10:08:16;;;;;;;12.13;3.03;;;;;;;;;;5022838;28;20495;-69
2022/02/27 10:10:58;;;;;;;7.63;3.27;;;;;;;;;;5027398;28;20037;-69
2022/02/27 10:13:36;;;;;;;9.98;3.50;;;;;;;;;;5006470;28;20018;-69
2022/02/27 10:16:05;;;;;;;9.33;2.63;;;;;;;;;;5019316;28;20452;-69
2022/02/27 10:18:47;;;;;;;12.10;2.83;;;;;;;;;;5014001;28;20084;-70
2022/02/27 10:21:23;;;;;;;10.82;3.85;;;;;;;;;;5017295;28;20288;-69
2022/02/27 10:24:05;;;;;;;7.30;3.63;;;;;;;;;;5012526;28;20099;-69
2022/02/27 10:26:31;;;;;;;16.05;5.22;;;;;;;;;;5018918;28;20298;-69
2022/02/27 10:29:04;;;;;;;6.07;2.30;;;;;;;;;;5016924;28;20022;-69
2022/02/27 10:31:29;;;;;;;9.33;2.50;;;;;;;;;;5014610;28;20202;-69
2022/02/27 10:33:58;;;;;;;8.50;2.93;;;;;;;;;;5015143;28;20136;-69
2022/02/27 10:36:23;;;;;;;8.50;3.10;;;;;;;;;;5008846;28;20292;-69
2022/02/27 10:38:52;;;;;;;10.73;3.70;;;;;;;;;;5008742;28;20433;-69
2022/02/27 10:41:21;;;;;;;10.87;3.00;;;;;;;;;;5008132;28;20044;-69
2022/02/27 10:43:46;;;;;;;8.87;3.10;;;;;;;;;;5016467;28;20083;-69
2022/02/27 10:46:13;;;;;;;14.63;7.47;;;;;;;;;;5019225;28;20501;-69
2022/02/27 10:48:39;;;;;;;24.67;10.30;;;;;;;;;;5018432;28;20117;-69
2022/02/27 10:51:05;;;;;;;11.50;3.73;;;;;;;;;;5015442;28;20026;-69
2022/02/27 10:53:37;;;;;;;6.93;3.10;;;;;;;;;;5014555;28;20022;-69
2022/02/27 10:56:07;;;;;;;13.33;5.37;;;;;;;;;;5018585;28;20052;-69
2022/02/27 10:58:36;;;;;;;12.03;3.60;;;;;;;;;;5018761;28;20036;-69
2022/02/27 11:01:06;;;;;;;11.67;5.63;;;;;;;;;;5018435;28;20033;-69
2022/02/27 11:03:35;;;;;;;12.47;3.03;;;;;;;;;;5017202;28;20140;-69
2022/02/27 11:06:01;;;;;;;4.67;1.93;;;;;;;;;;5018483;28;20104;-69
2022/02/27 11:08:27;;;;;;;12.40;4.33;;;;;;;;;;5024625;28;20127;-69
2022/02/27 11:10:52;;;;;;;14.67;4.47;;;;;;;;;;5024503;28;20269;-69
2022/02/27 11:13:18;;;;;;;11.87;3.93;;;;;;;;;;5018370;28;20216;-71
2022/02/27 11:15:43;;;;;;;8.87;3.10;;;;;;;;;;5013494;28;20026;-69
2022/02/27 11:18:09;;;;;;;6.83;2.37;;;;;;;;;;5003084;28;20086;-69
2022/02/27 11:20:35;;;;;;;7.27;3.03;;;;;;;;;;5018182;28;20159;-69
2022/02/27 11:23:00;;;;;;;7.20;2.93;;;;;;;;;;5018062;28;20641;-69
2022/02/27 11:25:26;;;;;;;5.17;2.57;;;;;;;;;;5018413;28;20026;-69
2022/02/27 11:27:52;;;;;;;6.87;2.70;;;;;;;;;;5011309;28;20029;-69
2022/02/27 11:30:22;;;;;;;6.40;2.97;;;;;;;;;;5007620;28;20073;-69
2022/02/27 11:32:52;;;;;;;7.93;3.37;;;;;;;;;;5017661;28;20460;-69
2022/02/27 11:35:36;;;;;;;5.63;2.17;;;;;;;;;;5018050;28;20080;-69
2022/02/27 11:38:03;;;;;;;8.03;2.70;;;;;;;;;;5012764;28;20606;-71
2022/02/27 11:40:37;;;;;;;6.93;2.63;;;;;;;;;;5018112;28;20027;-71
2022/02/27 11:43:03;;;;;;;12.27;3.90;;;;;;;;;;5017051;28;20028;-71
2022/02/27 11:45:34;;;;;;;9.33;3.00;;;;;;;;;;5012263;28;20025;-69
2022/02/27 11:48:00;;;;;;;7.50;2.08;;;;;;;;;;5009965;28;20120;-69
2022/02/27 11:50:27;;;;;;;12.73;3.00;;;;;;;;;;5015134;28;20538;-69
2022/02/27 11:52:52;;;;;;;7.00;2.00;;;;;;;;;;5019358;28;20421;-69
2022/02/27 11:55:36;;;;;;;8.23;2.97;;;;;;;;;;5018252;28;20033;-69
2022/02/27 11:58:01;;;;;;;11.37;1.77;;;;;;;;;;5014925;28;20489;-69
2022/02/27 12:00:36;;;;;;;6.67;2.30;;;;;;;;;;5017549;28;20336;-69
2022/02/27 12:03:22;;;;;;;5.27;2.00;;;;;;;;;;5016281;28;20103;-69
2022/02/27 12:05:47;;;;;;;12.37;3.33;;;;;;;;;;5017175;28;20047;-69
2022/02/27 12:08:14;;;;;;;4.63;2.30;;;;;;;;;;5016642;28;20033;-69
2022/02/27 12:10:41;;;;;;;6.03;2.20;;;;;;;;;;5017337;28;20257;-69
2022/02/27 12:13:23;;;;;;;11.10;2.30;;;;;;;;;;5016271;28;20103;-71
2022/02/27 12:16:00;;;;;;;6.60;2.43;;;;;;;;;;5017521;28;20025;-69
2022/02/27 12:18:25;;;;;;;8.03;2.40;;;;;;;;;;5012225;28;20517;-69
2022/02/27 12:20:55;;;;;;;4.87;2.17;;;;;;;;;;5016407;28;20160;-69
2022/02/27 12:23:40;;;;;;;10.23;2.93;;;;;;;;;;5016101;28;20142;-69
2022/02/27 12:26:07;;;;;;;6.37;2.40;;;;;;;;;;5015091;28;20209;-69
2022/02/27 12:28:45;;;;;;;5.47;2.30;;;;;;;;;;5017851;28;20121;-69
2022/02/27 12:31:16;;;;;;;8.63;2.17;;;;;;;;;;5015103;28;20657;-69
2022/02/27 12:33:41;;;;;;;4.80;2.05;;;;;;;;;;5010847;28;20056;-69
2022/02/27 12:36:07;;;;;;;10.23;2.40;;;;;;;;;;5015053;28;20302;-69
2022/02/27 12:38:33;;;;;;;6.30;2.30;;;;;;;;;;4998866;28;20348;-69
2022/02/27 12:40:59;;;;;;;6.87;2.57;;;;;;;;;;5004277;28;20030;-69
2022/02/27 12:43:24;;;;;;;6.13;2.20;;;;;;;;;;5016868;28;20529;-69
2022/02/27 12:45:49;;;;;;;6.10;1.90;;;;;;;;;;5016709;28;20056;-69
2022/02/27 12:48:18;;;;;;;4.07;1.83;;;;;;;;;;5011813;28;20036;-69
2022/02/27 12:50:47;;;;;;;7.23;1.67;;;;;;;;;;5007379;28;20273;-69
2022/02/27 12:53:12;;;;;;;3.43;1.40;;;;;;;;;;5003913;28;20017;-70
2022/02/27 12:55:38;;;;;;;4.43;1.70;;;;;;;;;;5016248;28;20029;-69
2022/02/27 12:58:05;;;;;;;7.47;2.33;;;;;;;;;;5014476;28;20024;-70
2022/02/27 13:00:31;;;;;;;9.27;2.83;;;;;;;;;;5010058;28;20029;-70
2022/02/27 13:02:57;;;;;;;7.00;1.17;;;;;;;;;;5016441;28;20076;-71
2022/02/27 13:05:24;;;;;;;6.20;1.90;;;;;;;;;;5015695;28;20505;-70
2022/02/27 13:07:49;;;;;;;4.93;1.90;;;;;;;;;;5010725;28;20052;-71
2022/02/27 13:10:16;;;;;;;4.47;1.90;;;;;;;;;;5013418;28;20038;-71
2022/02/27 13:12:41;;;;;;;8.60;2.00;;;;;;;;;;4998517;28;20248;-72
2022/02/27 13:15:06;;;;;;;6.37;2.20;;;;;;;;;;5020259;28;20017;-72
2022/02/27 13:17:33;;;;;;;6.27;1.93;;;;;;;;;;5020657;28;20037;-72
2022/02/27 13:20:01;;;;;;;9.93;1.80;;;;;;;;;;5015599;28;20467;-72
2022/02/27 13:22:30;;;;;;;6.93;2.20;;;;;;;;;;5016550;28;20026;-72
2022/02/27 13:24:57;;;;;;;6.10;2.20;;;;;;;;;;5020503;28;20033;-72
2022/02/27 13:27:27;;;;;;;5.83;1.70;;;;;;;;;;5020322;28;20055;-71
2022/02/27 13:30:09;;;;;;;4.20;1.73;;;;;;;;;;5013869;28;20409;-71
2022/02/27 13:32:36;;;;;;;6.13;1.90;;;;;;;;;;5005100;28;20025;-71
2022/02/27 13:35:02;;;;;;;5.40;1.93;;;;;;;;;;5019825;28;20030;-71
2022/02/27 13:37:37;;;;;;;4.17;1.83;;;;;;;;;;5019538;28;20026;-72
2022/02/27 13:40:07;;;;;;;3.93;1.80;;;;;;;;;;5019790;28;20290;-73
2022/02/27 13:42:33;;;;;;;6.23;1.80;;;;;;;;;;5019993;28;20113;-73
2022/02/27 13:44:59;;;;;;;7.37;1.60;;;;;;;;;;5016276;28;20041;-73
2022/02/27 13:47:25;;;;;;;6.57;2.70;;;;;;;;;;5011386;28;20021;-73
2022/02/27 13:49:51;;;;;;;6.03;1.90;;;;;;;;;;5016797;28;20576;-72
2022/02/27 13:52:20;;;;;;;8.43;2.40;;;;;;;;;;5018868;28;20074;-72
2022/02/27 13:54:47;;;;;;;5.03;1.70;;;;;;;;;;5024125;28;20086;-73
2022/02/27 13:57:12;;;;;;;5.57;1.97;;;;;;;;;;5021648;28;20118;-73
2022/02/27 13:59:45;;;;;;;7.43;2.40;;;;;;;;;;5010656;28;20109;-72
2022/02/27 14:02:11;;;;;;;8.70;2.63;;;;;;;;;;5012188;28;20434;-73
2022/02/27 14:04:36;;;;;;;5.97;1.97;;;;;;;;;;5013021;28;20049;-73
2022/02/27 14:07:12;;;;;;;5.10;1.80;;;;;;;;;;5015629;28;20401;-72
2022/02/27 14:09:48;;;;;;;4.27;1.40;;;;;;;;;;5012624;28;20025;-71
2022/02/27 14:12:13;;;;;;;1.87;0.90;;;;;;;;;;5009667;28;20021;-71
2022/02/27 14:14:42;;;;;;;5.97;1.80;;;;;;;;;;5009832;28;20032;-71
2022/02/27 14:17:20;;;;;;;4.10;1.53;;;;;;;;;;5013645;28;20113;-71
2022/02/27 14:19:49;;;;;;;3.70;1.63;;;;;;;;;;5012514;28;20032;-71
2022/02/27 14:22:14;;;;;;;5.77;1.77;;;;;;;;;;5011721;28;20833;-71
2022/02/27 14:24:44;;;;;;;2.50;1.20;;;;;;;;;;5017986;28;20125;-71
2022/02/27 14:27:13;;;;;;;3.57;1.57;;;;;;;;;;5010950;28;20030;-71
2022/02/27 14:29:39;;;;;;;5.07;1.60;;;;;;;;;;5013344;28;20025;-71
2022/02/27 14:32:22;;;;;;;7.47;2.33;;;;;;;;;;5015899;28;20379;-71
2022/02/27 14:34:48;;;;;;;4.57;1.90;;;;;;;;;;5013448;28;20025;-71